sensor_id;sensor_type;location;lat;lon;timestamp;pressure;altitude;pressure_sealevel;temperature;humidity
59103;BME280;43999;51.660;5.616;2023-05-03T00:02:13;102679.00;;;5.85;100.00
59103;BME280;43999;51.660;5.616;2023-05-03T00:04:42;102683.34;;;5.81;100.00
59103;BME280;43999;51.660;5.616;2023-05-03T00:07:12;102684.22;;;5.79;100.00
59103;BME280;43999;51.660;5.616;2023-05-03T00:09:40;102678.16;;;5.77;100.00
59103;BME280;43999;51.660;5.616;2023-05-03T00:12:07;102682.50;;;5.74;100.00
59103;BME280;43999;51.660;5.616;2023-05-03T00:14:35;102686.84;;;5.71;100.00
59103;BME280;43999;51.660;5.616;2023-05-03T00:17:02;102686.00;;;5.70;100.00
59103;BME280;43999;51.660;5.616;2023-05-03T00:19:29;102675.63;;;5.66;100.00
59103;BME280;43999;51.660;5.616;2023-05-03T00:21:59;102679.94;;;5.64;100.00
59103;BME280;43999;51.660;5.616;2023-05-03T00:24:27;102682.53;;;5.64;100.00
59103;BME280;43999;51.660;5.616;2023-05-03T00:26:54;102671.28;;;5.59;100.00
59103;BME280;43999;51.660;5.616;2023-05-03T00:29:22;102671.31;;;5.55;100.00
59103;BME280;43999;51.660;5.616;2023-05-03T00:31:50;102672.19;;;5.50;100.00
59103;BME280;43999;51.660;5.616;2023-05-03T00:34:17;102679.97;;;5.48;100.00
59103;BME280;43999;51.660;5.616;2023-05-03T00:36:45;102670.47;;;5.46;100.00
59103;BME280;43999;51.660;5.616;2023-05-03T00:39:12;102673.97;;;5.38;100.00
59103;BME280;43999;51.660;5.616;2023-05-03T00:41:40;102681.75;;;5.38;100.00
59103;BME280;43999;51.660;5.616;2023-05-03T00:44:07;102675.72;;;5.36;100.00
59103;BME280;43999;51.660;5.616;2023-05-03T00:46:35;102673.97;;;5.31;100.00
59103;BME280;43999;51.660;5.616;2023-05-03T00:49:02;102675.72;;;5.32;100.00
59103;BME280;43999;51.660;5.616;2023-05-03T00:51:30;102676.59;;;5.28;100.00
59103;BME280;43999;51.660;5.616;2023-05-03T00:53:57;102689.56;;;5.28;100.00
59103;BME280;43999;51.660;5.616;2023-05-03T00:56:25;102684.38;;;5.23;100.00
59103;BME280;43999;51.660;5.616;2023-05-03T00:58:55;102687.88;;;5.19;100.00
59103;BME280;43999;51.660;5.616;2023-05-03T01:01:23;102681.81;;;5.17;100.00
59103;BME280;43999;51.660;5.616;2023-05-03T01:03:53;102684.41;;;5.11;100.00
59103;BME280;43999;51.660;5.616;2023-05-03T01:09:20;102685.31;;;5.08;100.00
59103;BME280;43999;51.660;5.616;2023-05-03T01:15:27;102675.75;;;5.04;100.00
59103;BME280;43999;51.660;5.616;2023-05-03T01:18:03;102675.78;;;5.01;100.00
59103;BME280;43999;51.660;5.616;2023-05-03T01:20:43;102673.16;;;4.99;100.00
59103;BME280;43999;51.660;5.616;2023-05-03T01:26:30;102680.97;;;4.98;100.00
59103;BME280;43999;51.660;5.616;2023-05-03T01:28:59;102680.97;;;4.96;100.00
59103;BME280;43999;51.660;5.616;2023-05-03T01:31:50;102683.56;;;4.93;100.00
59103;BME280;43999;51.660;5.616;2023-05-03T01:34:49;102683.56;;;4.93;100.00
59103;BME280;43999;51.660;5.616;2023-05-03T01:37:21;102683.56;;;4.92;100.00
59103;BME280;43999;51.660;5.616;2023-05-03T01:40:02;102689.63;;;4.86;100.00
59103;BME280;43999;51.660;5.616;2023-05-03T01:42:37;102691.38;;;4.82;100.00
59103;BME280;43999;51.660;5.616;2023-05-03T01:45:05;102675.78;;;4.73;100.00
59103;BME280;43999;51.660;5.616;2023-05-03T01:47:34;102687.91;;;4.73;100.00
59103;BME280;43999;51.660;5.616;2023-05-03T01:50:01;102683.56;;;4.72;100.00
59103;BME280;43999;51.660;5.616;2023-05-03T01:52:30;102683.56;;;4.69;100.00
59103;BME280;43999;51.660;5.616;2023-05-03T01:54:58;102683.56;;;4.65;100.00
59103;BME280;43999;51.660;5.616;2023-05-03T01:57:26;102693.97;;;4.67;100.00
59103;BME280;43999;51.660;5.616;2023-05-03T01:59:53;102679.22;;;4.63;100.00
59103;BME280;43999;51.660;5.616;2023-05-03T02:02:20;102686.16;;;4.59;100.00
59103;BME280;43999;51.660;5.616;2023-05-03T02:04:49;102684.41;;;4.57;100.00
59103;BME280;43999;51.660;5.616;2023-05-03T02:07:17;102685.31;;;4.59;100.00
59103;BME280;43999;51.660;5.616;2023-05-03T02:09:45;102678.38;;;4.58;100.00
59103;BME280;43999;51.660;5.616;2023-05-03T02:12:13;102685.31;;;4.54;100.00
59103;BME280;43999;51.660;5.616;2023-05-03T02:14:40;102676.63;;;4.54;100.00
59103;BME280;43999;51.660;5.616;2023-05-03T02:17:08;102684.41;;;4.51;100.00
59103;BME280;43999;51.660;5.616;2023-05-03T02:19:36;102677.50;;;4.46;100.00
59103;BME280;43999;51.660;5.616;2023-05-03T02:22:05;102683.56;;;4.48;100.00
59103;BME280;43999;51.660;5.616;2023-05-03T02:24:33;102677.50;;;4.45;100.00
59103;BME280;43999;51.660;5.616;2023-05-03T02:27:02;102681.81;;;4.47;100.00
59103;BME280;43999;51.660;5.616;2023-05-03T02:29:30;102677.50;;;4.45;100.00
59103;BME280;43999;51.660;5.616;2023-05-03T02:31:59;102678.38;;;4.47;100.00
59103;BME280;43999;51.660;5.616;2023-05-03T02:34:27;102672.31;;;4.43;100.00
59103;BME280;43999;51.660;5.616;2023-05-03T02:36:54;102674.03;;;4.43;100.00
59103;BME280;43999;51.660;5.616;2023-05-03T02:39:22;102661.94;;;4.42;100.00
59103;BME280;43999;51.660;5.616;2023-05-03T02:41:50;102659.34;;;4.42;100.00
59103;BME280;43999;51.660;5.616;2023-05-03T02:44:17;102663.63;;;4.40;100.00
59103;BME280;43999;51.660;5.616;2023-05-03T02:46:44;102648.94;;;4.37;100.00
59103;BME280;43999;51.660;5.616;2023-05-03T02:49:15;102655.00;;;4.38;100.00
59103;BME280;43999;51.660;5.616;2023-05-03T02:51:43;102646.34;;;4.39;100.00
59103;BME280;43999;51.660;5.616;2023-05-03T02:54:11;102646.34;;;4.37;100.00
59103;BME280;43999;51.660;5.616;2023-05-03T02:56:39;102629.03;;;4.35;100.00
59103;BME280;43999;51.660;5.616;2023-05-03T02:59:06;102623.84;;;4.33;100.00
59103;BME280;43999;51.660;5.616;2023-05-03T03:01:33;102626.44;;;4.33;100.00
59103;BME280;43999;51.660;5.616;2023-05-03T03:04:02;102616.91;;;4.29;100.00
59103;BME280;43999;51.660;5.616;2023-05-03T03:06:30;102615.19;;;4.28;100.00
59103;BME280;43999;51.660;5.616;2023-05-03T03:08:58;102614.31;;;4.27;100.00
59103;BME280;43999;51.660;5.616;2023-05-03T03:11:25;102628.16;;;4.25;100.00
59103;BME280;43999;51.660;5.616;2023-05-03T03:13:53;102631.63;;;4.22;100.00
59103;BME280;43999;51.660;5.616;2023-05-03T03:16:21;102629.00;;;4.21;100.00
59103;BME280;43999;51.660;5.616;2023-05-03T03:18:48;102633.34;;;4.17;100.00
59103;BME280;43999;51.660;5.616;2023-05-03T03:21:17;102648.03;;;4.17;100.00
59103;BME280;43999;51.660;5.616;2023-05-03T03:23:44;102648.00;;;4.13;100.00
59103;BME280;43999;51.660;5.616;2023-05-03T03:26:12;102651.50;;;4.12;100.00
59103;BME280;43999;51.660;5.616;2023-05-03T03:28:40;102649.75;;;4.11;100.00
59103;BME280;43999;51.660;5.616;2023-05-03T03:31:10;102650.59;;;4.10;100.00
59103;BME280;43999;51.660;5.616;2023-05-03T03:33:38;102647.16;;;4.08;100.00
59103;BME280;43999;51.660;5.616;2023-05-03T03:36:11;102657.53;;;4.07;100.00
59103;BME280;43999;51.660;5.616;2023-05-03T03:38:41;102646.28;;;4.00;100.00
59103;BME280;43999;51.660;5.616;2023-05-03T03:41:10;102653.19;;;4.03;100.00
59103;BME280;43999;51.660;5.616;2023-05-03T03:43:38;102660.97;;;4.01;100.00
59103;BME280;43999;51.660;5.616;2023-05-03T03:46:10;102644.53;;;3.96;100.00
59103;BME280;43999;51.660;5.616;2023-05-03T03:48:39;102645.38;;;3.97;100.00
59103;BME280;43999;51.660;5.616;2023-05-03T03:51:06;102643.69;;;3.97;100.00
59103;BME280;43999;51.660;5.616;2023-05-03T03:53:41;102644.50;;;3.93;100.00
59103;BME280;43999;51.660;5.616;2023-05-03T03:56:08;102648.84;;;3.91;100.00
59103;BME280;43999;51.660;5.616;2023-05-03T03:58:36;102638.47;;;3.88;100.00
59103;BME280;43999;51.660;5.616;2023-05-03T04:01:06;102639.28;;;3.81;100.00
59103;BME280;43999;51.660;5.616;2023-05-03T04:03:33;102631.53;;;3.84;100.00
59103;BME280;43999;51.660;5.616;2023-05-03T04:06:01;102642.78;;;3.83;100.00
59103;BME280;43999;51.660;5.616;2023-05-03T04:08:30;102649.66;;;3.81;100.00
59103;BME280;43999;51.660;5.616;2023-05-03T04:10:57;102651.41;;;3.80;100.00
59103;BME280;43999;51.660;5.616;2023-05-03T04:13:25;102652.25;;;3.79;100.00
59103;BME280;43999;51.660;5.616;2023-05-03T04:15:55;102659.19;;;3.80;100.00
59103;BME280;43999;51.660;5.616;2023-05-03T04:18:24;102651.41;;;3.83;100.00
59103;BME280;43999;51.660;5.616;2023-05-03T04:20:55;102663.53;;;3.83;100.00
59103;BME280;43999;51.660;5.616;2023-05-03T04:23:22;102667.84;;;3.85;100.00
59103;BME280;43999;51.660;5.616;2023-05-03T04:25:50;102657.44;;;3.81;100.00
59103;BME280;43999;51.660;5.616;2023-05-03T04:28:19;102666.97;;;3.82;100.00
59103;BME280;43999;51.660;5.616;2023-05-03T04:30:48;102662.63;;;3.81;100.00
59103;BME280;43999;51.660;5.616;2023-05-03T04:33:22;102660.94;;;3.81;100.00
59103;BME280;43999;51.660;5.616;2023-05-03T04:35:51;102663.53;;;3.86;100.00
59103;BME280;43999;51.660;5.616;2023-05-03T04:38:19;102674.81;;;4.00;100.00
59103;BME280;43999;51.660;5.616;2023-05-03T04:40:48;102667.94;;;4.15;100.00
59103;BME280;43999;51.660;5.616;2023-05-03T04:43:17;102667.97;;;4.30;100.00
59103;BME280;43999;51.660;5.616;2023-05-03T04:45:47;102677.50;;;4.42;100.00
59103;BME280;43999;51.660;5.616;2023-05-03T04:48:18;102684.41;;;4.55;100.00
59103;BME280;43999;51.660;5.616;2023-05-03T04:50:48;102685.31;;;4.63;100.00
59103;BME280;43999;51.660;5.616;2023-05-03T04:53:18;102696.56;;;4.75;100.00
59103;BME280;43999;51.660;5.616;2023-05-03T04:55:51;102695.69;;;4.79;100.00
59103;BME280;43999;51.660;5.616;2023-05-03T04:58:19;102697.41;;;4.83;100.00
59103;BME280;43999;51.660;5.616;2023-05-03T05:00:47;102708.69;;;4.99;100.00
59103;BME280;43999;51.660;5.616;2023-05-03T05:03:23;102710.38;;;5.15;100.00
59103;BME280;43999;51.660;5.616;2023-05-03T05:05:50;102713.88;;;5.14;100.00
59103;BME280;43999;51.660;5.616;2023-05-03T05:08:18;102717.31;;;5.16;100.00
59103;BME280;43999;51.660;5.616;2023-05-03T05:10:51;102722.53;;;5.24;100.00
59103;BME280;43999;51.660;5.616;2023-05-03T05:13:24;102720.78;;;5.28;100.00
59103;BME280;43999;51.660;5.616;2023-05-03T05:15:52;102719.91;;;5.23;100.00
59103;BME280;43999;51.660;5.616;2023-05-03T05:18:19;102722.53;;;5.18;100.00
59103;BME280;43999;51.660;5.616;2023-05-03T05:20:48;102727.72;;;5.21;100.00
59103;BME280;43999;51.660;5.616;2023-05-03T05:23:18;102719.06;;;5.24;100.00
59103;BME280;43999;51.660;5.616;2023-05-03T05:25:47;102732.91;;;5.33;100.00
59103;BME280;43999;51.660;5.616;2023-05-03T05:28:14;102729.41;;;5.42;100.00
59103;BME280;43999;51.660;5.616;2023-05-03T05:30:43;102723.31;;;5.52;100.00
59103;BME280;43999;51.660;5.616;2023-05-03T05:33:12;102725.06;;;5.55;100.00
59103;BME280;43999;51.660;5.616;2023-05-03T05:35:44;102725.00;;;5.75;100.00
59103;BME280;43999;51.660;5.616;2023-05-03T05:38:14;102723.22;;;5.85;100.00
59103;BME280;43999;51.660;5.616;2023-05-03T05:40:43;102731.84;;;5.91;100.00
59103;BME280;43999;51.660;5.616;2023-05-03T05:43:11;102731.00;;;5.94;100.00
59103;BME280;43999;51.660;5.616;2023-05-03T05:45:41;102738.81;;;5.99;100.00
59103;BME280;43999;51.660;5.616;2023-05-03T05:48:08;102739.66;;;6.05;100.00
59103;BME280;43999;51.660;5.616;2023-05-03T05:50:36;102731.78;;;6.16;100.00
59103;BME280;43999;51.660;5.616;2023-05-03T05:53:08;102732.63;;;6.23;100.00
59103;BME280;43999;51.660;5.616;2023-05-03T05:55:40;102731.72;;;6.28;100.00
59103;BME280;43999;51.660;5.616;2023-05-03T05:58:11;102743.03;;;6.29;100.00
59103;BME280;43999;51.660;5.616;2023-05-03T06:00:45;102743.00;;;6.34;100.00
59103;BME280;43999;51.660;5.616;2023-05-03T06:03:15;102735.97;;;6.45;100.00
59103;BME280;43999;51.660;5.616;2023-05-03T06:05:44;102733.28;;;6.59;100.00
59103;BME280;43999;51.660;5.616;2023-05-03T06:08:12;102734.09;;;6.66;100.00
59103;BME280;43999;51.660;5.616;2023-05-03T06:10:39;102727.09;;;6.71;100.00
59103;BME280;43999;51.660;5.616;2023-05-03T06:13:08;102732.25;;;6.77;100.00
59103;BME280;43999;51.660;5.616;2023-05-03T06:15:36;102731.34;;;6.86;100.00
59103;BME280;43999;51.660;5.616;2023-05-03T06:18:03;102731.28;;;6.93;100.00
59103;BME280;43999;51.660;5.616;2023-05-03T06:20:31;102735.50;;;7.10;100.00
59103;BME280;43999;51.660;5.616;2023-05-03T06:22:59;102725.03;;;7.14;100.00
59103;BME280;43999;51.660;5.616;2023-05-03T06:25:27;102730.22;;;7.17;100.00
59103;BME280;43999;51.660;5.616;2023-05-03T06:27:54;102717.09;;;7.25;100.00
59103;BME280;43999;51.660;5.616;2023-05-03T06:30:28;102723.09;;;7.33;100.00
59103;BME280;43999;51.660;5.616;2023-05-03T06:33:01;102718.63;;;7.45;100.00
59103;BME280;43999;51.660;5.616;2023-05-03T06:35:30;102723.75;;;7.54;100.00
59103;BME280;43999;51.660;5.616;2023-05-03T06:38:00;102719.38;;;7.59;100.00
59103;BME280;43999;51.660;5.616;2023-05-03T06:40:28;102714.06;;;7.67;100.00
59103;BME280;43999;51.660;5.616;2023-05-03T06:42:56;102726.91;;;7.84;100.00
59103;BME280;43999;51.660;5.616;2023-05-03T06:45:40;102710.16;;;7.99;100.00
59103;BME280;43999;51.660;5.616;2023-05-03T06:48:08;102707.25;;;8.20;100.00
59103;BME280;43999;51.660;5.616;2023-05-03T06:50:37;102705.81;;;8.63;97.83
59103;BME280;43999;51.660;5.616;2023-05-03T06:53:06;102711.53;;;8.85;97.71
59103;BME280;43999;51.660;5.616;2023-05-03T06:55:34;102707.56;;;9.14;94.08
59103;BME280;43999;51.660;5.616;2023-05-03T06:58:05;102714.44;;;9.20;90.00
59103;BME280;43999;51.660;5.616;2023-05-03T07:00:37;102705.78;;;9.16;91.12
59103;BME280;43999;51.660;5.616;2023-05-03T07:03:06;102694.38;;;9.20;90.35
59103;BME280;43999;51.660;5.616;2023-05-03T07:05:36;102707.22;;;9.32;88.61
59103;BME280;43999;51.660;5.616;2023-05-03T07:08:03;102708.13;;;9.31;88.85
59103;BME280;43999;51.660;5.616;2023-05-03T07:10:30;102708.25;;;9.24;89.70
59103;BME280;43999;51.660;5.616;2023-05-03T07:13:00;102706.53;;;9.23;89.52
59103;BME280;43999;51.660;5.616;2023-05-03T07:15:29;102709.88;;;9.29;88.95
59103;BME280;43999;51.660;5.616;2023-05-03T07:17:57;102708.00;;;9.38;89.08
59103;BME280;43999;51.660;5.616;2023-05-03T07:20:25;102706.09;;;9.46;89.58
59103;BME280;43999;51.660;5.616;2023-05-03T07:22:54;102703.00;;;9.71;88.67
59103;BME280;43999;51.660;5.616;2023-05-03T07:25:22;102711.25;;;9.93;85.31
59103;BME280;43999;51.660;5.616;2023-05-03T07:27:50;102715.53;;;9.97;86.46
59103;BME280;43999;51.660;5.616;2023-05-03T07:30:17;102699.72;;;10.01;85.23
59103;BME280;43999;51.660;5.616;2023-05-03T07:32:50;102710.50;;;10.28;83.00
59103;BME280;43999;51.660;5.616;2023-05-03T07:35:20;102704.97;;;10.42;80.41
59103;BME280;43999;51.660;5.616;2023-05-03T07:37:52;102688.22;;;10.49;80.27
59103;BME280;43999;51.660;5.616;2023-05-03T07:40:20;102701.03;;;10.62;77.49
59103;BME280;43999;51.660;5.616;2023-05-03T07:42:49;102700.78;;;10.71;77.94
59103;BME280;43999;51.660;5.616;2023-05-03T07:45:17;102693.44;;;10.85;78.42
59103;BME280;43999;51.660;5.616;2023-05-03T07:47:45;102691.25;;;11.01;79.32
59103;BME280;43999;51.660;5.616;2023-05-03T07:50:13;102685.56;;;11.18;76.43
59103;BME280;43999;51.660;5.616;2023-05-03T07:52:40;102680.91;;;11.29;73.63
59103;BME280;43999;51.660;5.616;2023-05-03T07:55:09;102678.25;;;11.31;73.61
59103;BME280;43999;51.660;5.616;2023-05-03T07:57:40;102671.00;;;11.39;73.30
59103;BME280;43999;51.660;5.616;2023-05-03T08:00:10;102663.00;;;11.44;73.33
59103;BME280;43999;51.660;5.616;2023-05-03T08:02:39;102668.22;;;11.45;70.24
59103;BME280;43999;51.660;5.616;2023-05-03T08:05:09;102662.16;;;11.43;69.29
59103;BME280;43999;51.660;5.616;2023-05-03T08:07:47;102653.72;;;11.32;69.21
59103;BME280;43999;51.660;5.616;2023-05-03T08:10:18;102652.19;;;11.25;70.78
59103;BME280;43999;51.660;5.616;2023-05-03T08:12:47;102657.44;;;11.25;71.11
59103;BME280;43999;51.660;5.616;2023-05-03T08:15:21;102652.78;;;11.35;68.77
59103;BME280;43999;51.660;5.616;2023-05-03T08:17:53;102659.22;;;11.54;69.10
59103;BME280;43999;51.660;5.616;2023-05-03T08:20:22;102646.47;;;11.72;67.64
59103;BME280;43999;51.660;5.616;2023-05-03T08:22:52;102646.19;;;11.81;66.98
59103;BME280;43999;51.660;5.616;2023-05-03T08:25:26;102651.91;;;11.95;65.62
59103;BME280;43999;51.660;5.616;2023-05-03T08:27:54;102664.97;;;12.25;64.86
59103;BME280;43999;51.660;5.616;2023-05-03T08:30:23;102647.00;;;12.40;66.77
59103;BME280;43999;51.660;5.616;2023-05-03T08:33:02;102661.41;;;12.81;62.84
59103;BME280;43999;51.660;5.616;2023-05-03T08:35:30;102651.03;;;13.02;63.74
59103;BME280;43999;51.660;5.616;2023-05-03T08:37:58;102653.25;;;13.39;61.87
59103;BME280;43999;51.660;5.616;2023-05-03T08:40:33;102645.44;;;13.60;61.14
59103;BME280;43999;51.660;5.616;2023-05-03T08:43:07;102642.34;;;13.96;59.67
59103;BME280;43999;51.660;5.616;2023-05-03T08:45:38;102638.09;;;14.14;59.72
59103;BME280;43999;51.660;5.616;2023-05-03T08:48:07;102644.41;;;14.32;59.73
59103;BME280;43999;51.660;5.616;2023-05-03T08:50:34;102640.75;;;14.57;58.16
59103;BME280;43999;51.660;5.616;2023-05-03T08:53:09;102634.41;;;14.83;57.37
59103;BME280;43999;51.660;5.616;2023-05-03T08:55:37;102637.06;;;15.02;56.67
59103;BME280;43999;51.660;5.616;2023-05-03T08:58:08;102640.28;;;15.29;54.36
59103;BME280;43999;51.660;5.616;2023-05-03T09:00:38;102637.22;;;15.38;54.00
59103;BME280;43999;51.660;5.616;2023-05-03T09:03:08;102639.34;;;15.30;54.48
59103;BME280;43999;51.660;5.616;2023-05-03T09:05:37;102639.88;;;15.38;52.72
59103;BME280;43999;51.660;5.616;2023-05-03T09:08:25;102644.81;;;15.46;52.59
59103;BME280;43999;51.660;5.616;2023-05-03T09:10:54;102648.28;;;15.47;52.48
59103;BME280;43999;51.660;5.616;2023-05-03T09:13:24;102645.84;;;15.61;54.57
59103;BME280;43999;51.660;5.616;2023-05-03T09:15:57;102655.88;;;15.92;53.06
59103;BME280;43999;51.660;5.616;2023-05-03T09:18:24;102662.38;;;16.04;51.26
59103;BME280;43999;51.660;5.616;2023-05-03T09:20:53;102661.00;;;15.95;50.38
59103;BME280;43999;51.660;5.616;2023-05-03T09:23:30;102655.22;;;16.06;50.15
59103;BME280;43999;51.660;5.616;2023-05-03T09:25:58;102647.19;;;16.27;50.03
59103;BME280;43999;51.660;5.616;2023-05-03T09:28:44;102651.78;;;16.41;50.21
59103;BME280;43999;51.660;5.616;2023-05-03T09:31:12;102652.03;;;16.54;50.47
59103;BME280;43999;51.660;5.616;2023-05-03T09:33:39;102654.59;;;16.73;47.60
59103;BME280;43999;51.660;5.616;2023-05-03T09:36:07;102646.50;;;16.76;48.06
59103;BME280;43999;51.660;5.616;2023-05-03T09:38:36;102644.97;;;16.89;48.49
59103;BME280;43999;51.660;5.616;2023-05-03T09:41:05;102636.97;;;17.07;45.92
59103;BME280;43999;51.660;5.616;2023-05-03T09:43:35;102652.03;;;17.06;45.87
59103;BME280;43999;51.660;5.616;2023-05-03T09:46:17;102644.16;;;17.05;47.05
59103;BME280;43999;51.660;5.616;2023-05-03T09:48:45;102632.75;;;17.20;46.09
59103;BME280;43999;51.660;5.616;2023-05-03T09:51:13;102630.88;;;17.22;45.55
59103;BME280;43999;51.660;5.616;2023-05-03T09:53:40;102631.56;;;17.26;45.31
59103;BME280;43999;51.660;5.616;2023-05-03T09:56:10;102628.88;;;17.43;45.89
59103;BME280;43999;51.660;5.616;2023-05-03T09:58:42;102629.38;;;17.66;44.82
59103;BME280;43999;51.660;5.616;2023-05-03T10:01:10;102631.59;;;17.73;45.36
59103;BME280;43999;51.660;5.616;2023-05-03T10:03:49;102631.97;;;17.83;43.92
59103;BME280;43999;51.660;5.616;2023-05-03T10:06:50;102628.91;;;17.91;43.88
59103;BME280;43999;51.660;5.616;2023-05-03T10:09:41;102624.34;;;18.09;43.38
59103;BME280;43999;51.660;5.616;2023-05-03T10:12:16;102627.16;;;18.22;43.75
59103;BME280;43999;51.660;5.616;2023-05-03T10:14:49;102633.88;;;18.43;43.16
59103;BME280;43999;51.660;5.616;2023-05-03T10:17:23;102622.22;;;18.60;41.57
59103;BME280;43999;51.660;5.616;2023-05-03T10:20:32;102634.06;;;18.85;41.38
59103;BME280;43999;51.660;5.616;2023-05-03T10:23:11;102639.59;;;18.80;40.24
59103;BME280;43999;51.660;5.616;2023-05-03T10:28:39;102628.50;;;18.74;41.43
59103;BME280;43999;51.660;5.616;2023-05-03T10:34:21;102631.72;;;18.79;41.41
59103;BME280;43999;51.660;5.616;2023-05-03T10:37:01;102630.47;;;19.01;40.46
59103;BME280;43999;51.660;5.616;2023-05-03T10:39:44;102639.59;;;19.11;40.62
59103;BME280;43999;51.660;5.616;2023-05-03T10:42:12;102637.50;;;19.02;40.33
59103;BME280;43999;51.660;5.616;2023-05-03T10:44:51;102634.00;;;19.01;40.46
59103;BME280;43999;51.660;5.616;2023-05-03T10:47:23;102635.13;;;19.11;40.75
59103;BME280;43999;51.660;5.616;2023-05-03T10:52:56;102634.06;;;19.43;38.83
59103;BME280;43999;51.660;5.616;2023-05-03T10:55:24;102634.81;;;19.45;39.04
59103;BME280;43999;51.660;5.616;2023-05-03T10:57:58;102636.63;;;19.44;38.90
59103;BME280;43999;51.660;5.616;2023-05-03T11:03:42;102616.97;;;19.47;37.68
59103;BME280;43999;51.660;5.616;2023-05-03T11:06:37;102620.41;;;19.49;38.14
59103;BME280;43999;51.660;5.616;2023-05-03T11:09:09;102609.28;;;19.57;38.68
59103;BME280;43999;51.660;5.616;2023-05-03T11:11:41;102614.94;;;19.79;38.92
59103;BME280;43999;51.660;5.616;2023-05-03T11:14:18;102614.44;;;19.87;38.75
59103;BME280;43999;51.660;5.616;2023-05-03T11:16:45;102611.56;;;19.90;37.89
59103;BME280;43999;51.660;5.616;2023-05-03T11:19:17;102602.53;;;19.93;38.68
59103;BME280;43999;51.660;5.616;2023-05-03T11:21:47;102597.16;;;20.07;38.09
59103;BME280;43999;51.660;5.616;2023-05-03T11:24:15;102593.13;;;20.14;38.45
59103;BME280;43999;51.660;5.616;2023-05-03T11:26:43;102582.19;;;20.19;38.23
59103;BME280;43999;51.660;5.616;2023-05-03T11:29:14;102588.66;;;20.15;38.30
59103;BME280;43999;51.660;5.616;2023-05-03T11:31:43;102582.59;;;20.13;39.45
59103;BME280;43999;51.660;5.616;2023-05-03T11:34:12;102585.06;;;20.16;38.78
59103;BME280;43999;51.660;5.616;2023-05-03T11:36:43;102591.97;;;20.18;38.63
59103;BME280;43999;51.660;5.616;2023-05-03T11:39:13;102582.69;;;20.11;39.06
59103;BME280;43999;51.660;5.616;2023-05-03T11:41:43;102573.41;;;20.04;38.39
59103;BME280;43999;51.660;5.616;2023-05-03T11:44:15;102564.53;;;19.91;39.02
59103;BME280;43999;51.660;5.616;2023-05-03T11:46:45;102562.66;;;19.78;39.15
59103;BME280;43999;51.660;5.616;2023-05-03T11:49:18;102554.41;;;19.68;39.34
59103;BME280;43999;51.660;5.616;2023-05-03T11:51:46;102567.06;;;19.65;40.00
59103;BME280;43999;51.660;5.616;2023-05-03T11:54:21;102556.28;;;19.53;38.85
59103;BME280;43999;51.660;5.616;2023-05-03T11:56:57;102557.38;;;19.37;39.50
59103;BME280;43999;51.660;5.616;2023-05-03T11:59:37;102554.47;;;19.12;40.77
59103;BME280;43999;51.660;5.616;2023-05-03T12:02:11;102553.13;;;19.05;40.95
59103;BME280;43999;51.660;5.616;2023-05-03T12:04:42;102552.09;;;19.08;41.24
59103;BME280;43999;51.660;5.616;2023-05-03T12:07:13;102544.72;;;18.98;41.56
59103;BME280;43999;51.660;5.616;2023-05-03T12:09:49;102544.88;;;18.81;40.60
59103;BME280;43999;51.660;5.616;2023-05-03T12:12:37;102543.25;;;18.64;41.53
59103;BME280;43999;51.660;5.616;2023-05-03T12:15:12;102523.50;;;18.54;42.14
59103;BME280;43999;51.660;5.616;2023-05-03T12:17:42;102529.75;;;18.38;41.41
59103;BME280;43999;51.660;5.616;2023-05-03T12:20:19;102524.88;;;18.16;42.04
59103;BME280;43999;51.660;5.616;2023-05-03T12:23:11;102524.41;;;18.09;41.83
59103;BME280;43999;51.660;5.616;2023-05-03T12:25:44;102519.66;;;18.00;41.87
59103;BME280;43999;51.660;5.616;2023-05-03T12:28:17;102523.91;;;17.87;42.13
59103;BME280;43999;51.660;5.616;2023-05-03T12:30:47;102516.97;;;17.84;42.25
59103;BME280;43999;51.660;5.616;2023-05-03T12:33:18;102505.28;;;17.88;41.95
59103;BME280;43999;51.660;5.616;2023-05-03T12:35:50;102505.34;;;17.87;41.99
59103;BME280;43999;51.660;5.616;2023-05-03T12:38:21;102507.25;;;17.85;42.28
59103;BME280;43999;51.660;5.616;2023-05-03T12:40:51;102492.28;;;17.84;42.49
59103;BME280;43999;51.660;5.616;2023-05-03T12:43:19;102492.69;;;17.92;43.14
59103;BME280;43999;51.660;5.616;2023-05-03T12:45:47;102490.28;;;18.03;42.49
59103;BME280;43999;51.660;5.616;2023-05-03T12:48:35;102478.47;;;18.23;42.53
59103;BME280;43999;51.660;5.616;2023-05-03T12:51:04;102479.88;;;18.29;42.55
59103;BME280;43999;51.660;5.616;2023-05-03T12:53:46;102471.09;;;18.28;41.67
59103;BME280;43999;51.660;5.616;2023-05-03T12:56:23;102470.72;;;18.20;41.42
59103;BME280;43999;51.660;5.616;2023-05-03T12:58:58;102473.00;;;18.26;41.98
59103;BME280;43999;51.660;5.616;2023-05-03T13:01:46;102462.94;;;18.32;41.48
59103;BME280;43999;51.660;5.616;2023-05-03T13:04:35;102456.22;;;18.40;41.26
59103;BME280;43999;51.660;5.616;2023-05-03T13:07:24;102459.91;;;18.52;41.93
59103;BME280;43999;51.660;5.616;2023-05-03T13:09:58;102459.78;;;18.68;41.03
59103;BME280;43999;51.660;5.616;2023-05-03T13:12:36;102455.91;;;18.74;40.62
59103;BME280;43999;51.660;5.616;2023-05-03T13:15:10;102453.34;;;18.72;40.94
59103;BME280;43999;51.660;5.616;2023-05-03T13:17:57;102448.91;;;18.87;40.32
59103;BME280;43999;51.660;5.616;2023-05-03T13:20:28;102439.59;;;18.94;39.30
59103;BME280;43999;51.660;5.616;2023-05-03T13:22:58;102433.59;;;19.05;39.10
59103;BME280;43999;51.660;5.616;2023-05-03T13:25:27;102438.69;;;19.23;38.99
59103;BME280;43999;51.660;5.616;2023-05-03T13:27:54;102432.88;;;19.43;38.77
59103;BME280;43999;51.660;5.616;2023-05-03T13:30:24;102434.22;;;19.63;39.09
59103;BME280;43999;51.660;5.616;2023-05-03T13:32:54;102425.13;;;19.93;38.45